sensor_id;sensor_type;location;lat;lon;timestamp;P1;durP1;ratioP1;P2;durP2;ratioP2
4521;SDS011;2273;48.464;11.926;2022-10-31T00:01:27;15.10;;;8.97;;
4521;SDS011;2273;48.464;11.926;2022-10-31T00:03:54;17.57;;;9.73;;
4521;SDS011;2273;48.464;11.926;2022-10-31T00:06:20;29.33;;;9.40;;
4521;SDS011;2273;48.464;11.926;2022-10-31T00:08:46;12.93;;;8.07;;
4521;SDS011;2273;48.464;11.926;2022-10-31T00:11:12;16.10;;;9.77;;
4521;SDS011;2273;48.464;11.926;2022-10-31T00:13:38;19.53;;;9.00;;
4521;SDS011;2273;48.464;11.926;2022-10-31T00:16:04;12.43;;;8.80;;
4521;SDS011;2273;48.464;11.926;2022-10-31T00:18:29;19.07;;;9.70;;
4521;SDS011;2273;48.464;11.926;2022-10-31T00:21:00;13.63;;;8.60;;
4521;SDS011;2273;48.464;11.926;2022-10-31T00:23:27;10.87;;;8.67;;
4521;SDS011;2273;48.464;11.926;2022-10-31T00:25:52;11.43;;;6.93;;
4521;SDS011;2273;48.464;11.926;2022-10-31T00:28:17;12.60;;;7.27;;
4521;SDS011;2273;48.464;11.926;2022-10-31T00:30:43;10.60;;;7.37;;
4521;SDS011;2273;48.464;11.926;2022-10-31T00:33:08;10.03;;;6.97;;
4521;SDS011;2273;48.464;11.926;2022-10-31T00:35:35;12.27;;;8.30;;
4521;SDS011;2273;48.464;11.926;2022-10-31T00:38:01;33.43;;;8.00;;
4521;SDS011;2273;48.464;11.926;2022-10-31T00:40:26;10.73;;;8.03;;
4521;SDS011;2273;48.464;11.926;2022-10-31T00:42:52;10.63;;;7.03;;
4521;SDS011;2273;48.464;11.926;2022-10-31T00:45:18;11.90;;;7.40;;
4521;SDS011;2273;48.464;11.926;2022-10-31T00:47:43;12.23;;;6.60;;
4521;SDS011;2273;48.464;11.926;2022-10-31T00:50:08;19.90;;;7.83;;
4521;SDS011;2273;48.464;11.926;2022-10-31T00:52:34;12.90;;;7.70;;
4521;SDS011;2273;48.464;11.926;2022-10-31T00:55:00;13.20;;;7.17;;
4521;SDS011;2273;48.464;11.926;2022-10-31T00:57:26;10.30;;;6.90;;
4521;SDS011;2273;48.464;11.926;2022-10-31T00:59:51;8.90;;;6.90;;
4521;SDS011;2273;48.464;11.926;2022-10-31T01:02:17;16.30;;;7.20;;
4521;SDS011;2273;48.464;11.926;2022-10-31T01:04:42;8.63;;;6.80;;
4521;SDS011;2273;48.464;11.926;2022-10-31T01:07:09;10.40;;;6.60;;
4521;SDS011;2273;48.464;11.926;2022-10-31T01:09:36;9.50;;;7.10;;
4521;SDS011;2273;48.464;11.926;2022-10-31T01:12:02;10.77;;;6.93;;
4521;SDS011;2273;48.464;11.926;2022-10-31T01:14:27;15.87;;;7.50;;
4521;SDS011;2273;48.464;11.926;2022-10-31T01:16:56;12.10;;;7.10;;
4521;SDS011;2273;48.464;11.926;2022-10-31T01:19:21;15.63;;;7.80;;
4521;SDS011;2273;48.464;11.926;2022-10-31T01:21:46;11.40;;;7.20;;
4521;SDS011;2273;48.464;11.926;2022-10-31T01:24:12;10.20;;;6.77;;
4521;SDS011;2273;48.464;11.926;2022-10-31T01:26:37;13.60;;;7.10;;
4521;SDS011;2273;48.464;11.926;2022-10-31T01:29:04;12.87;;;7.80;;
4521;SDS011;2273;48.464;11.926;2022-10-31T01:31:32;10.80;;;6.33;;
4521;SDS011;2273;48.464;11.926;2022-10-31T01:33:59;9.90;;;6.93;;
4521;SDS011;2273;48.464;11.926;2022-10-31T01:36:32;10.43;;;6.83;;
4521;SDS011;2273;48.464;11.926;2022-10-31T01:39:00;8.40;;;6.40;;
4521;SDS011;2273;48.464;11.926;2022-10-31T01:41:29;10.37;;;6.40;;
4521;SDS011;2273;48.464;11.926;2022-10-31T01:48:59;14.50;;;7.00;;
4521;SDS011;2273;48.464;11.926;2022-10-31T01:51:27;10.53;;;7.63;;
4521;SDS011;2273;48.464;11.926;2022-10-31T01:53:55;10.20;;;7.07;;
4521;SDS011;2273;48.464;11.926;2022-10-31T01:56:25;8.63;;;7.10;;
4521;SDS011;2273;48.464;11.926;2022-10-31T01:58:51;8.13;;;6.70;;
4521;SDS011;2273;48.464;11.926;2022-10-31T02:01:16;7.00;;;6.07;;
4521;SDS011;2273;48.464;11.926;2022-10-31T02:03:43;8.90;;;7.50;;
4521;SDS011;2273;48.464;11.926;2022-10-31T02:06:10;9.37;;;6.30;;
4521;SDS011;2273;48.464;11.926;2022-10-31T02:08:44;11.47;;;7.73;;
4521;SDS011;2273;48.464;11.926;2022-10-31T02:11:10;9.97;;;7.47;;
4521;SDS011;2273;48.464;11.926;2022-10-31T02:13:36;16.20;;;8.20;;
4521;SDS011;2273;48.464;11.926;2022-10-31T02:16:05;10.00;;;8.10;;
4521;SDS011;2273;48.464;11.926;2022-10-31T02:18:32;10.17;;;8.40;;
4521;SDS011;2273;48.464;11.926;2022-10-31T02:23:50;10.60;;;7.73;;
4521;SDS011;2273;48.464;11.926;2022-10-31T02:26:41;11.57;;;8.00;;
4521;SDS011;2273;48.464;11.926;2022-10-31T02:34:52;11.60;;;7.53;;
4521;SDS011;2273;48.464;11.926;2022-10-31T02:40:05;10.47;;;7.97;;
4521;SDS011;2273;48.464;11.926;2022-10-31T02:43:14;14.77;;;8.37;;
4521;SDS011;2273;48.464;11.926;2022-10-31T02:46:07;8.90;;;7.07;;
4521;SDS011;2273;48.464;11.926;2022-10-31T02:48:39;10.33;;;7.93;;
4521;SDS011;2273;48.464;11.926;2022-10-31T02:51:06;30.17;;;8.90;;
4521;SDS011;2273;48.464;11.926;2022-10-31T02:53:35;8.57;;;7.30;;
4521;SDS011;2273;48.464;11.926;2022-10-31T02:56:05;41.40;;;7.80;;
4521;SDS011;2273;48.464;11.926;2022-10-31T02:58:35;25.97;;;8.53;;
4521;SDS011;2273;48.464;11.926;2022-10-31T03:07:23;48.10;;;8.23;;
4521;SDS011;2273;48.464;11.926;2022-10-31T03:12:26;10.20;;;7.00;;
4521;SDS011;2273;48.464;11.926;2022-10-31T03:17:46;43.80;;;7.70;;
4521;SDS011;2273;48.464;11.926;2022-10-31T03:20:15;48.07;;;7.80;;
4521;SDS011;2273;48.464;11.926;2022-10-31T03:22:42;47.57;;;8.23;;
4521;SDS011;2273;48.464;11.926;2022-10-31T03:25:09;68.10;;;10.57;;
4521;SDS011;2273;48.464;11.926;2022-10-31T03:27:35;61.87;;;9.27;;
4521;SDS011;2273;48.464;11.926;2022-10-31T03:30:03;11.10;;;7.40;;
4521;SDS011;2273;48.464;11.926;2022-10-31T03:32:43;21.13;;;7.50;;
4521;SDS011;2273;48.464;11.926;2022-10-31T03:35:12;15.60;;;7.80;;
4521;SDS011;2273;48.464;11.926;2022-10-31T03:37:38;8.87;;;6.90;;
4521;SDS011;2273;48.464;11.926;2022-10-31T03:40:09;8.33;;;6.83;;
4521;SDS011;2273;48.464;11.926;2022-10-31T03:42:40;7.90;;;6.60;;
4521;SDS011;2273;48.464;11.926;2022-10-31T03:45:12;64.23;;;7.57;;
4521;SDS011;2273;48.464;11.926;2022-10-31T03:47:39;18.23;;;8.00;;
4521;SDS011;2273;48.464;11.926;2022-10-31T03:50:06;32.80;;;7.93;;
4521;SDS011;2273;48.464;11.926;2022-10-31T03:55:28;80.07;;;10.37;;
4521;SDS011;2273;48.464;11.926;2022-10-31T03:58:02;48.50;;;9.50;;
4521;SDS011;2273;48.464;11.926;2022-10-31T04:00:30;14.57;;;9.30;;
4521;SDS011;2273;48.464;11.926;2022-10-31T04:03:04;32.07;;;9.70;;
4521;SDS011;2273;48.464;11.926;2022-10-31T04:05:34;10.90;;;8.30;;
4521;SDS011;2273;48.464;11.926;2022-10-31T04:08:01;11.37;;;7.97;;
4521;SDS011;2273;48.464;11.926;2022-10-31T04:10:30;41.77;;;10.27;;
4521;SDS011;2273;48.464;11.926;2022-10-31T04:12:59;12.20;;;8.70;;
4521;SDS011;2273;48.464;11.926;2022-10-31T04:15:35;11.93;;;9.00;;
4521;SDS011;2273;48.464;11.926;2022-10-31T04:18:01;52.10;;;8.80;;
4521;SDS011;2273;48.464;11.926;2022-10-31T04:20:30;9.97;;;8.47;;
4521;SDS011;2273;48.464;11.926;2022-10-31T04:22:56;9.83;;;7.57;;
4521;SDS011;2273;48.464;11.926;2022-10-31T04:25:22;10.57;;;8.00;;
4521;SDS011;2273;48.464;11.926;2022-10-31T04:27:47;10.60;;;7.67;;
4521;SDS011;2273;48.464;11.926;2022-10-31T04:30:13;11.30;;;7.77;;
4521;SDS011;2273;48.464;11.926;2022-10-31T04:32:40;8.80;;;7.13;;
4521;SDS011;2273;48.464;11.926;2022-10-31T04:35:06;10.30;;;8.30;;
4521;SDS011;2273;48.464;11.926;2022-10-31T04:37:32;12.67;;;8.80;;
4521;SDS011;2273;48.464;11.926;2022-10-31T04:39:58;12.20;;;8.70;;
4521;SDS011;2273;48.464;11.926;2022-10-31T04:42:42;14.07;;;9.10;;
4521;SDS011;2273;48.464;11.926;2022-10-31T04:45:09;11.53;;;8.20;;
4521;SDS011;2273;48.464;11.926;2022-10-31T04:47:35;10.50;;;7.90;;
4521;SDS011;2273;48.464;11.926;2022-10-31T04:50:01;10.93;;;8.77;;
4521;SDS011;2273;48.464;11.926;2022-10-31T04:52:27;12.20;;;7.57;;
4521;SDS011;2273;48.464;11.926;2022-10-31T04:54:52;9.47;;;7.30;;
4521;SDS011;2273;48.464;11.926;2022-10-31T04:57:50;17.20;;;7.50;;
4521;SDS011;2273;48.464;11.926;2022-10-31T05:00:18;37.83;;;8.80;;
4521;SDS011;2273;48.464;11.926;2022-10-31T05:02:51;24.93;;;7.80;;
4521;SDS011;2273;48.464;11.926;2022-10-31T05:05:19;10.90;;;8.50;;
4521;SDS011;2273;48.464;11.926;2022-10-31T05:07:47;15.90;;;7.70;;
4521;SDS011;2273;48.464;11.926;2022-10-31T05:10:14;25.97;;;7.53;;
4521;SDS011;2273;48.464;11.926;2022-10-31T05:12:45;41.87;;;8.47;;
4521;SDS011;2273;48.464;11.926;2022-10-31T05:15:38;9.60;;;7.43;;
4521;SDS011;2273;48.464;11.926;2022-10-31T05:18:22;26.00;;;7.77;;
4521;SDS011;2273;48.464;11.926;2022-10-31T05:21:06;33.57;;;8.50;;
4521;SDS011;2273;48.464;11.926;2022-10-31T05:23:40;10.20;;;8.40;;
4521;SDS011;2273;48.464;11.926;2022-10-31T05:26:06;9.00;;;7.30;;
4521;SDS011;2273;48.464;11.926;2022-10-31T05:28:32;12.13;;;7.60;;
4521;SDS011;2273;48.464;11.926;2022-10-31T05:30:58;9.40;;;7.50;;
4521;SDS011;2273;48.464;11.926;2022-10-31T05:33:24;10.33;;;7.70;;
4521;SDS011;2273;48.464;11.926;2022-10-31T05:36:08;10.50;;;7.33;;
4521;SDS011;2273;48.464;11.926;2022-10-31T05:38:39;10.87;;;7.90;;
4521;SDS011;2273;48.464;11.926;2022-10-31T05:41:14;8.63;;;6.73;;
4521;SDS011;2273;48.464;11.926;2022-10-31T05:43:45;8.53;;;7.53;;
4521;SDS011;2273;48.464;11.926;2022-10-31T05:46:12;8.63;;;7.20;;
4521;SDS011;2273;48.464;11.926;2022-10-31T05:49:03;16.07;;;8.17;;
4521;SDS011;2273;48.464;11.926;2022-10-31T05:51:48;12.10;;;9.60;;
4521;SDS011;2273;48.464;11.926;2022-10-31T05:54:13;15.87;;;9.33;;
4521;SDS011;2273;48.464;11.926;2022-10-31T05:56:39;12.70;;;9.70;;
4521;SDS011;2273;48.464;11.926;2022-10-31T05:59:05;10.13;;;8.40;;
4521;SDS011;2273;48.464;11.926;2022-10-31T06:01:30;11.80;;;9.23;;
4521;SDS011;2273;48.464;11.926;2022-10-31T06:04:02;10.50;;;8.37;;
4521;SDS011;2273;48.464;11.926;2022-10-31T06:06:28;11.30;;;8.30;;
4521;SDS011;2273;48.464;11.926;2022-10-31T06:08:54;11.40;;;7.00;;
4521;SDS011;2273;48.464;11.926;2022-10-31T06:11:21;8.87;;;7.40;;
4521;SDS011;2273;48.464;11.926;2022-10-31T06:14:02;10.37;;;8.00;;
4521;SDS011;2273;48.464;11.926;2022-10-31T06:16:34;9.77;;;7.73;;
4521;SDS011;2273;48.464;11.926;2022-10-31T06:19:17;12.97;;;7.63;;
4521;SDS011;2273;48.464;11.926;2022-10-31T06:21:42;10.90;;;7.60;;
4521;SDS011;2273;48.464;11.926;2022-10-31T06:24:08;12.90;;;8.13;;
4521;SDS011;2273;48.464;11.926;2022-10-31T06:26:53;9.53;;;7.70;;
4521;SDS011;2273;48.464;11.926;2022-10-31T06:29:19;8.87;;;6.80;;
4521;SDS011;2273;48.464;11.926;2022-10-31T06:32:05;17.00;;;8.70;;
4521;SDS011;2273;48.464;11.926;2022-10-31T06:34:36;24.67;;;13.40;;
4521;SDS011;2273;48.464;11.926;2022-10-31T06:37:02;15.53;;;10.10;;
4521;SDS011;2273;48.464;11.926;2022-10-31T06:39:29;11.47;;;8.27;;
4521;SDS011;2273;48.464;11.926;2022-10-31T06:41:54;16.60;;;10.50;;
4521;SDS011;2273;48.464;11.926;2022-10-31T06:44:21;10.73;;;8.70;;
4521;SDS011;2273;48.464;11.926;2022-10-31T06:46:58;11.70;;;8.63;;
4521;SDS011;2273;48.464;11.926;2022-10-31T06:49:42;11.43;;;9.13;;
4521;SDS011;2273;48.464;11.926;2022-10-31T06:52:12;13.27;;;8.60;;
4521;SDS011;2273;48.464;11.926;2022-10-31T06:54:37;17.23;;;8.63;;
4521;SDS011;2273;48.464;11.926;2022-10-31T06:57:03;10.93;;;8.47;;
4521;SDS011;2273;48.464;11.926;2022-10-31T06:59:28;32.00;;;9.00;;
4521;SDS011;2273;48.464;11.926;2022-10-31T07:02:23;16.70;;;7.60;;
4521;SDS011;2273;48.464;11.926;2022-10-31T07:04:50;15.50;;;7.40;;
4521;SDS011;2273;48.464;11.926;2022-10-31T07:07:16;14.60;;;9.43;;
4521;SDS011;2273;48.464;11.926;2022-10-31T07:09:43;29.50;;;8.63;;
4521;SDS011;2273;48.464;11.926;2022-10-31T07:12:12;10.40;;;8.30;;
4521;SDS011;2273;48.464;11.926;2022-10-31T07:14:43;11.90;;;8.87;;
4521;SDS011;2273;48.464;11.926;2022-10-31T07:17:09;11.73;;;8.03;;
4521;SDS011;2273;48.464;11.926;2022-10-31T07:19:39;12.70;;;9.40;;
4521;SDS011;2273;48.464;11.926;2022-10-31T07:22:04;17.23;;;8.20;;
4521;SDS011;2273;48.464;11.926;2022-10-31T07:24:31;16.77;;;9.73;;
4521;SDS011;2273;48.464;11.926;2022-10-31T07:27:19;39.20;;;12.27;;
4521;SDS011;2273;48.464;11.926;2022-10-31T07:29:47;25.63;;;10.37;;
4521;SDS011;2273;48.464;11.926;2022-10-31T07:32:14;23.13;;;11.60;;
4521;SDS011;2273;48.464;11.926;2022-10-31T07:34:46;18.00;;;11.37;;
4521;SDS011;2273;48.464;11.926;2022-10-31T07:37:17;16.83;;;11.53;;
4521;SDS011;2273;48.464;11.926;2022-10-31T07:39:43;20.00;;;12.23;;
4521;SDS011;2273;48.464;11.926;2022-10-31T07:42:08;34.13;;;11.17;;
4521;SDS011;2273;48.464;11.926;2022-10-31T07:44:35;33.53;;;11.53;;
4521;SDS011;2273;48.464;11.926;2022-10-31T07:47:39;22.97;;;11.60;;
4521;SDS011;2273;48.464;11.926;2022-10-31T07:50:25;20.87;;;10.03;;
4521;SDS011;2273;48.464;11.926;2022-10-31T07:53:10;18.17;;;12.27;;
4521;SDS011;2273;48.464;11.926;2022-10-31T07:55:43;21.70;;;10.57;;
4521;SDS011;2273;48.464;11.926;2022-10-31T07:58:13;15.83;;;10.27;;
4521;SDS011;2273;48.464;11.926;2022-10-31T08:00:42;15.53;;;10.80;;
4521;SDS011;2273;48.464;11.926;2022-10-31T08:03:16;25.83;;;12.43;;
4521;SDS011;2273;48.464;11.926;2022-10-31T08:06:01;29.80;;;12.50;;
4521;SDS011;2273;48.464;11.926;2022-10-31T08:08:27;14.90;;;10.50;;
4521;SDS011;2273;48.464;11.926;2022-10-31T08:10:53;25.60;;;11.97;;
4521;SDS011;2273;48.464;11.926;2022-10-31T08:13:20;19.53;;;10.70;;
4521;SDS011;2273;48.464;11.926;2022-10-31T08:15:49;14.50;;;9.10;;
4521;SDS011;2273;48.464;11.926;2022-10-31T08:18:19;14.97;;;9.70;;
4521;SDS011;2273;48.464;11.926;2022-10-31T08:20:47;15.70;;;9.60;;
4521;SDS011;2273;48.464;11.926;2022-10-31T08:23:12;17.47;;;11.97;;
4521;SDS011;2273;48.464;11.926;2022-10-31T08:25:40;19.50;;;10.60;;
4521;SDS011;2273;48.464;11.926;2022-10-31T08:28:06;14.93;;;10.43;;
4521;SDS011;2273;48.464;11.926;2022-10-31T08:30:32;17.33;;;11.00;;
4521;SDS011;2273;48.464;11.926;2022-10-31T08:33:22;15.57;;;11.97;;
4521;SDS011;2273;48.464;11.926;2022-10-31T08:36:06;18.77;;;11.63;;
4521;SDS011;2273;48.464;11.926;2022-10-31T08:38:49;16.13;;;10.07;;
4521;SDS011;2273;48.464;11.926;2022-10-31T08:41:16;16.40;;;11.30;;
4521;SDS011;2273;48.464;11.926;2022-10-31T08:43:41;20.27;;;12.53;;
4521;SDS011;2273;48.464;11.926;2022-10-31T08:46:07;21.53;;;12.57;;
4521;SDS011;2273;48.464;11.926;2022-10-31T08:48:32;14.20;;;11.00;;
4521;SDS011;2273;48.464;11.926;2022-10-31T08:50:59;21.00;;;12.00;;
4521;SDS011;2273;48.464;11.926;2022-10-31T08:53:25;18.50;;;12.43;;
4521;SDS011;2273;48.464;11.926;2022-10-31T08:56:05;20.20;;;12.90;;
4521;SDS011;2273;48.464;11.926;2022-10-31T08:58:34;21.97;;;12.20;;
4521;SDS011;2273;48.464;11.926;2022-10-31T09:01:01;21.80;;;12.67;;
4521;SDS011;2273;48.464;11.926;2022-10-31T09:03:27;20.90;;;13.90;;
4521;SDS011;2273;48.464;11.926;2022-10-31T09:05:56;24.20;;;16.13;;
4521;SDS011;2273;48.464;11.926;2022-10-31T09:08:28;23.63;;;15.93;;
4521;SDS011;2273;48.464;11.926;2022-10-31T09:10:55;28.83;;;14.60;;
4521;SDS011;2273;48.464;11.926;2022-10-31T09:13:41;20.30;;;13.20;;
4521;SDS011;2273;48.464;11.926;2022-10-31T09:16:29;21.60;;;15.00;;
4521;SDS011;2273;48.464;11.926;2022-10-31T09:18:55;23.83;;;14.30;;
4521;SDS011;2273;48.464;11.926;2022-10-31T09:21:20;21.70;;;14.37;;
4521;SDS011;2273;48.464;11.926;2022-10-31T09:23:46;23.43;;;14.60;;
4521;SDS011;2273;48.464;11.926;2022-10-31T09:26:11;21.80;;;14.13;;
4521;SDS011;2273;48.464;11.926;2022-10-31T09:28:55;19.60;;;13.60;;
4521;SDS011;2273;48.464;11.926;2022-10-31T09:31:22;24.37;;;15.30;;
4521;SDS011;2273;48.464;11.926;2022-10-31T09:34:02;19.50;;;13.90;;
4521;SDS011;2273;48.464;11.926;2022-10-31T09:36:39;22.00;;;14.00;;
4521;SDS011;2273;48.464;11.926;2022-10-31T09:39:08;24.80;;;14.07;;
4521;SDS011;2273;48.464;11.926;2022-10-31T09:44:03;22.83;;;14.57;;
4521;SDS011;2273;48.464;11.926;2022-10-31T09:46:48;21.40;;;14.27;;
4521;SDS011;2273;48.464;11.926;2022-10-31T09:49:25;21.07;;;13.97;;
4521;SDS011;2273;48.464;11.926;2022-10-31T09:52:35;21.57;;;13.70;;
4521;SDS011;2273;48.464;11.926;2022-10-31T09:55:14;22.33;;;12.90;;
4521;SDS011;2273;48.464;11.926;2022-10-31T09:57:42;20.20;;;12.90;;
4521;SDS011;2273;48.464;11.926;2022-10-31T10:00:14;17.57;;;12.33;;
4521;SDS011;2273;48.464;11.926;2022-10-31T10:05:38;25.93;;;14.23;;
4521;SDS011;2273;48.464;11.926;2022-10-31T10:08:26;27.43;;;13.50;;
4521;SDS011;2273;48.464;11.926;2022-10-31T10:23:02;23.90;;;12.73;;
4521;SDS011;2273;48.464;11.926;2022-10-31T10:25:28;20.90;;;13.33;;
4521;SDS011;2273;48.464;11.926;2022-10-31T10:28:20;26.90;;;13.40;;
4521;SDS011;2273;48.464;11.926;2022-10-31T10:30:53;24.40;;;13.73;;
4521;SDS011;2273;48.464;11.926;2022-10-31T10:36:00;20.67;;;13.37;;
4521;SDS011;2273;48.464;11.926;2022-10-31T10:38:37;22.50;;;13.83;;
4521;SDS011;2273;48.464;11.926;2022-10-31T10:41:08;22.47;;;12.80;;
4521;SDS011;2273;48.464;11.926;2022-10-31T10:43:42;24.20;;;14.50;;
4521;SDS011;2273;48.464;11.926;2022-10-31T10:49:04;24.03;;;13.40;;
4521;SDS011;2273;48.464;11.926;2022-10-31T10:54:12;20.33;;;14.17;;
4521;SDS011;2273;48.464;11.926;2022-10-31T10:59:58;24.80;;;13.70;;
4521;SDS011;2273;48.464;11.926;2022-10-31T11:02:26;19.40;;;12.03;;
4521;SDS011;2273;48.464;11.926;2022-10-31T11:04:53;21.50;;;13.37;;
4521;SDS011;2273;48.464;11.926;2022-10-31T11:07:19;20.67;;;13.40;;
4521;SDS011;2273;48.464;11.926;2022-10-31T11:09:45;19.17;;;11.80;;
4521;SDS011;2273;48.464;11.926;2022-10-31T11:12:29;23.70;;;11.60;;
4521;SDS011;2273;48.464;11.926;2022-10-31T11:15:00;30.60;;;14.33;;
4521;SDS011;2273;48.464;11.926;2022-10-31T11:17:32;16.83;;;10.90;;
4521;SDS011;2273;48.464;11.926;2022-10-31T11:20:00;20.60;;;12.80;;
4521;SDS011;2273;48.464;11.926;2022-10-31T11:22:47;25.90;;;12.43;;
4521;SDS011;2273;48.464;11.926;2022-10-31T11:27:45;19.50;;;12.80;;
4521;SDS011;2273;48.464;11.926;2022-10-31T11:30:35;16.80;;;12.37;;
4521;SDS011;2273;48.464;11.926;2022-10-31T11:33:01;22.93;;;12.00;;
4521;SDS011;2273;48.464;11.926;2022-10-31T11:35:28;22.70;;;13.00;;
4521;SDS011;2273;48.464;11.926;2022-10-31T11:37:54;20.63;;;12.10;;
4521;SDS011;2273;48.464;11.926;2022-10-31T11:40:26;21.60;;;13.03;;
4521;SDS011;2273;48.464;11.926;2022-10-31T11:42:53;16.77;;;12.33;;
4521;SDS011;2273;48.464;11.926;2022-10-31T11:47:50;21.27;;;13.17;;
4521;SDS011;2273;48.464;11.926;2022-10-31T11:50:35;21.60;;;14.00;;
4521;SDS011;2273;48.464;11.926;2022-10-31T11:53:03;22.60;;;14.67;;
4521;SDS011;2273;48.464;11.926;2022-10-31T11:55:36;19.90;;;13.73;;
4521;SDS011;2273;48.464;11.926;2022-10-31T11:58:03;21.37;;;14.87;;
4521;SDS011;2273;48.464;11.926;2022-10-31T12:00:30;24.87;;;15.30;;
4521;SDS011;2273;48.464;11.926;2022-10-31T12:05:29;34.67;;;16.50;;
4521;SDS011;2273;48.464;11.926;2022-10-31T12:07:58;23.93;;;15.23;;
4521;SDS011;2273;48.464;11.926;2022-10-31T12:10:28;26.43;;;15.80;;
4521;SDS011;2273;48.464;11.926;2022-10-31T12:15:42;31.87;;;15.33;;
4521;SDS011;2273;48.464;11.926;2022-10-31T12:23:56;22.40;;;15.53;;
4521;SDS011;2273;48.464;11.926;2022-10-31T12:26:36;21.00;;;14.53;;
4521;SDS011;2273;48.464;11.926;2022-10-31T12:29:14;21.70;;;14.53;;
4521;SDS011;2273;48.464;11.926;2022-10-31T12:31:58;22.80;;;15.10;;
4521;SDS011;2273;48.464;11.926;2022-10-31T12:34:55;27.00;;;14.57;;
4521;SDS011;2273;48.464;11.926;2022-10-31T12:37:51;22.10;;;13.70;;
4521;SDS011;2273;48.464;11.926;2022-10-31T12:45:48;23.27;;;14.13;;
4521;SDS011;2273;48.464;11.926;2022-10-31T12:51:10;24.30;;;14.70;;
4521;SDS011;2273;48.464;11.926;2022-10-31T12:54:11;18.73;;;13.00;;
4521;SDS011;2273;48.464;11.926;2022-10-31T13:02:19;21.23;;;13.53;;
4521;SDS011;2273;48.464;11.926;2022-10-31T13:04:51;19.10;;;12.20;;
4521;SDS011;2273;48.464;11.926;2022-10-31T13:08:04;20.50;;;12.97;;
4521;SDS011;2273;48.464;11.926;2022-10-31T13:10:15;26.27;;;13.10;;
4521;SDS011;2273;48.464;11.926;2022-10-31T13:12:57;22.37;;;12.70;;
4521;SDS011;2273;48.464;11.926;2022-10-31T13:15:26;17.80;;;13.03;;
4521;SDS011;2273;48.464;11.926;2022-10-31T13:17:54;19.83;;;12.23;;
4521;SDS011;2273;48.464;11.926;2022-10-31T13:23:14;24.03;;;12.80;;
4521;SDS011;2273;48.464;11.926;2022-10-31T13:25:45;20.23;;;14.07;;
4521;SDS011;2273;48.464;11.926;2022-10-31T13:31:09;21.13;;;13.63;;
4521;SDS011;2273;48.464;11.926;2022-10-31T13:33:45;33.07;;;13.90;;
4521;SDS011;2273;48.464;11.926;2022-10-31T13:41:55;20.93;;;13.80;;
4521;SDS011;2273;48.464;11.926;2022-10-31T13:44:27;26.90;;;14.33;;
4521;SDS011;2273;48.464;11.926;2022-10-31T13:46:57;25.00;;;13.00;;
4521;SDS011;2273;48.464;11.926;2022-10-31T13:49:36;30.73;;;14.37;;
4521;SDS011;2273;48.464;11.926;2022-10-31T13:54:34;21.03;;;12.60;;
4521;SDS011;2273;48.464;11.926;2022-10-31T13:57:00;20.93;;;13.77;;
4521;SDS011;2273;48.464;11.926;2022-10-31T13:59:27;20.20;;;13.93;;
4521;SDS011;2273;48.464;11.926;2022-10-31T14:01:57;17.70;;;12.03;;
4521;SDS011;2273;48.464;11.926;2022-10-31T14:04:28;24.70;;;12.67;;
4521;SDS011;2273;48.464;11.926;2022-10-31T14:15:16;17.90;;;12.53;;
4521;SDS011;2273;48.464;11.926;2022-10-31T14:17:50;24.33;;;13.50;;
4521;SDS011;2273;48.464;11.926;2022-10-31T14:20:22;14.73;;;11.30;;
4521;SDS011;2273;48.464;11.926;2022-10-31T14:22:56;21.03;;;12.03;;
4521;SDS011;2273;48.464;11.926;2022-10-31T14:25:29;17.90;;;11.83;;
4521;SDS011;2273;48.464;11.926;2022-10-31T14:27:55;18.43;;;11.77;;
4521;SDS011;2273;48.464;11.926;2022-10-31T14:30:22;21.40;;;11.30;;
4521;SDS011;2273;48.464;11.926;2022-10-31T14:32:50;18.73;;;11.63;;
4521;SDS011;2273;48.464;11.926;2022-10-31T14:35:17;25.87;;;12.80;;
4521;SDS011;2273;48.464;11.926;2022-10-31T14:40:35;17.40;;;11.80;;
4521;SDS011;2273;48.464;11.926;2022-10-31T14:43:39;25.53;;;13.63;;
4521;SDS011;2273;48.464;11.926;2022-10-31T14:46:32;23.53;;;12.90;;
4521;SDS011;2273;48.464;11.926;2022-10-31T14:49:11;19.53;;;12.30;;
4521;SDS011;2273;48.464;11.926;2022-10-31T14:51:43;19.10;;;12.57;;
4521;SDS011;2273;48.464;11.926;2022-10-31T14:54:30;24.63;;;13.07;;
4521;SDS011;2273;48.464;11.926;2022-10-31T14:57:08;32.13;;;13.63;;
4521;SDS011;2273;48.464;11.926;2022-10-31T14:59:50;21.40;;;13.90;;
4521;SDS011;2273;48.464;11.926;2022-10-31T15:02:20;21.07;;;13.40;;
4521;SDS011;2273;48.464;11.926;2022-10-31T15:04:49;23.00;;;13.90;;
4521;SDS011;2273;48.464;11.926;2022-10-31T15:07:23;28.03;;;14.80;;
4521;SDS011;2273;48.464;11.926;2022-10-31T15:10:01;26.30;;;14.17;;
4521;SDS011;2273;48.464;11.926;2022-10-31T15:12:29;24.10;;;13.63;;
4521;SDS011;2273;48.464;11.926;2022-10-31T15:14:56;23.17;;;14.30;;
4521;SDS011;2273;48.464;11.926;2022-10-31T15:17:23;23.27;;;13.97;;
4521;SDS011;2273;48.464;11.926;2022-10-31T15:19:49;20.00;;;14.43;;
4521;SDS011;2273;48.464;11.926;2022-10-31T15:22:17;22.97;;;15.60;;
4521;SDS011;2273;48.464;11.926;2022-10-31T15:24:44;21.97;;;15.03;;
4521;SDS011;2273;48.464;11.926;2022-10-31T15:27:14;27.40;;;16.33;;
4521;SDS011;2273;48.464;11.926;2022-10-31T15:32:44;33.80;;;16.37;;
4521;SDS011;2273;48.464;11.926;2022-10-31T15:35:10;25.70;;;14.20;;
4521;SDS011;2273;48.464;11.926;2022-10-31T15:37:39;25.20;;;15.90;;
4521;SDS011;2273;48.464;11.926;2022-10-31T15:40:14;25.40;;;16.77;;
4521;SDS011;2273;48.464;11.926;2022-10-31T15:42:41;27.50;;;16.00;;
4521;SDS011;2273;48.464;11.926;2022-10-31T15:47:38;34.00;;;16.80;;
4521;SDS011;2273;48.464;11.926;2022-10-31T15:50:20;24.63;;;15.60;;
4521;SDS011;2273;48.464;11.926;2022-10-31T15:52:56;35.17;;;14.70;;
4521;SDS011;2273;48.464;11.926;2022-10-31T15:55:22;23.13;;;14.57;;
4521;SDS011;2273;48.464;11.926;2022-10-31T15:57:53;24.80;;;14.63;;
4521;SDS011;2273;48.464;11.926;2022-10-31T16:00:33;24.53;;;15.73;;
4521;SDS011;2273;48.464;11.926;2022-10-31T16:03:03;23.60;;;13.90;;
4521;SDS011;2273;48.464;11.926;2022-10-31T16:05:37;24.60;;;14.53;;
4521;SDS011;2273;48.464;11.926;2022-10-31T16:08:19;27.97;;;14.60;;
4521;SDS011;2273;48.464;11.926;2022-10-31T16:10:46;25.80;;;15.47;;
4521;SDS011;2273;48.464;11.926;2022-10-31T16:13:12;23.83;;;15.10;;
4521;SDS011;2273;48.464;11.926;2022-10-31T16:15:37;25.07;;;14.67;;
4521;SDS011;2273;48.464;11.926;2022-10-31T16:18:15;20.30;;;15.00;;
4521;SDS011;2273;48.464;11.926;2022-10-31T16:20:40;25.67;;;16.30;;
4521;SDS011;2273;48.464;11.926;2022-10-31T16:23:16;27.03;;;16.47;;
4521;SDS011;2273;48.464;11.926;2022-10-31T16:25:41;37.00;;;16.30;;
4521;SDS011;2273;48.464;11.926;2022-10-31T16:28:49;21.40;;;15.50;;
4521;SDS011;2273;48.464;11.926;2022-10-31T16:30:59;31.07;;;18.97;;
4521;SDS011;2273;48.464;11.926;2022-10-31T16:33:35;27.10;;;18.17;;
4521;SDS011;2273;48.464;11.926;2022-10-31T16:36:29;25.03;;;17.40;;
4521;SDS011;2273;48.464;11.926;2022-10-31T16:38:52;26.30;;;19.37;;
4521;SDS011;2273;48.464;11.926;2022-10-31T16:41:18;32.57;;;20.93;;
4521;SDS011;2273;48.464;11.926;2022-10-31T16:43:44;43.13;;;19.90;;
4521;SDS011;2273;48.464;11.926;2022-10-31T16:46:12;30.40;;;20.83;;
4521;SDS011;2273;48.464;11.926;2022-10-31T16:48:39;30.13;;;19.23;;
4521;SDS011;2273;48.464;11.926;2022-10-31T16:51:06;30.50;;;18.83;;
4521;SDS011;2273;48.464;11.926;2022-10-31T16:53:32;37.57;;;20.23;;
4521;SDS011;2273;48.464;11.926;2022-10-31T16:55:58;31.97;;;19.20;;
4521;SDS011;2273;48.464;11.926;2022-10-31T17:00:54;31.40;;;19.97;;
4521;SDS011;2273;48.464;11.926;2022-10-31T17:03:20;27.97;;;18.30;;
4521;SDS011;2273;48.464;11.926;2022-10-31T17:05:46;26.03;;;17.73;;
4521;SDS011;2273;48.464;11.926;2022-10-31T17:08:11;29.47;;;18.60;;